createdAt,value
2022-10-28T00:01:33.322Z,5.85
2022-10-28T00:04:01.081Z,5.63
2022-10-28T00:06:34.478Z,5.28
2022-10-28T00:09:02.313Z,5.65
2022-10-28T00:11:33.573Z,5.65
2022-10-28T00:14:03.146Z,5.53
2022-10-28T00:16:32.440Z,4.80
2022-10-28T00:19:00.996Z,5.93
2022-10-28T00:21:30.516Z,5.38
2022-10-28T00:23:58.015Z,4.50
2022-10-28T00:26:30.112Z,5.35
2022-10-28T00:29:02.602Z,4.57
2022-10-28T00:31:31.282Z,4.78
2022-10-28T00:34:04.021Z,5.65
2022-10-28T00:36:33.291Z,5.25
2022-10-28T00:39:01.608Z,5.38
2022-10-28T00:41:34.084Z,4.78
2022-10-28T00:44:42.616Z,5.25
2022-10-28T00:47:17.531Z,5.03
2022-10-28T00:49:47.799Z,5.72
2022-10-28T00:52:24.377Z,4.43
2022-10-28T00:54:52.843Z,5.90
2022-10-28T00:57:23.187Z,5.30
2022-10-28T00:59:53.303Z,6.55
2022-10-28T01:02:21.040Z,5.90
2022-10-28T01:04:48.400Z,5.55
2022-10-28T01:07:16.784Z,5.40
2022-10-28T01:09:43.967Z,5.13
2022-10-28T01:12:36.620Z,5.43
2022-10-28T01:15:28.504Z,5.78
2022-10-28T01:18:26.018Z,5.55
2022-10-28T01:21:15.496Z,6.03
2022-10-28T01:24:19.729Z,5.13
2022-10-28T01:27:12.726Z,6.65
2022-10-28T01:29:49.811Z,6.32
2022-10-28T01:32:19.548Z,6.07
2022-10-28T01:35:22.000Z,5.07
2022-10-28T01:38:10.684Z,4.82
2022-10-28T01:40:54.708Z,5.18
2022-10-28T01:43:35.828Z,4.80
2022-10-28T01:46:16.753Z,5.07
2022-10-28T01:48:56.046Z,4.80
2022-10-28T01:51:37.492Z,5.55
2022-10-28T01:54:07.783Z,4.80
2022-10-28T01:56:39.171Z,5.55
2022-10-28T01:59:11.193Z,5.35
2022-10-28T02:01:38.204Z,4.80
2022-10-28T02:04:05.233Z,5.10
2022-10-28T02:06:34.808Z,5.32
2022-10-28T02:09:25.457Z,5.15
2022-10-28T02:12:17.058Z,4.68
2022-10-28T02:15:02.514Z,5.03
2022-10-28T02:17:41.197Z,5.10
2022-10-28T02:20:21.040Z,4.43
2022-10-28T02:22:53.864Z,4.97
2022-10-28T02:25:29.460Z,5.55
2022-10-28T02:28:08.005Z,5.20
2022-10-28T02:30:44.581Z,5.25
2022-10-28T02:33:15.189Z,4.72
2022-10-28T02:35:47.649Z,4.68
2022-10-28T02:38:31.518Z,5.32
2022-10-28T02:41:02.768Z,5.85
2022-10-28T02:43:32.632Z,4.70
2022-10-28T02:46:01.369Z,5.05
2022-10-28T02:48:41.312Z,4.78
2022-10-28T02:51:21.641Z,5.75
2022-10-28T02:54:00.230Z,5.30
2022-10-28T02:56:29.981Z,5.75
2022-10-28T02:58:56.791Z,5.72
2022-10-28T03:01:23.694Z,5.47
2022-10-28T03:03:50.631Z,5.70
2022-10-28T03:06:17.376Z,5.95
2022-10-28T03:08:44.161Z,5.80
2022-10-28T03:11:10.934Z,5.85
2022-10-28T03:13:37.715Z,5.35
2022-10-28T03:16:04.745Z,5.15
2022-10-28T03:18:31.465Z,5.32
2022-10-28T03:20:59.168Z,5.80
2022-10-28T03:23:26.076Z,5.70
2022-10-28T03:25:52.837Z,5.63
2022-10-28T03:28:19.683Z,5.45
2022-10-28T03:30:46.480Z,5.82
2022-10-28T03:33:13.333Z,5.50
2022-10-28T03:35:40.062Z,5.32
2022-10-28T03:38:06.791Z,5.30
2022-10-28T03:40:34.384Z,5.68
2022-10-28T03:43:01.261Z,6.03
2022-10-28T03:47:59.725Z,5.82
2022-10-28T03:50:26.481Z,5.63
2022-10-28T03:52:53.194Z,5.38
2022-10-28T03:55:19.951Z,6.43
2022-10-28T03:57:46.759Z,5.75
2022-10-28T04:00:14.323Z,5.65
2022-10-28T04:02:41.168Z,4.93
2022-10-28T04:05:08.480Z,5.72
2022-10-28T04:07:35.479Z,5.30
2022-10-28T04:10:02.282Z,6.07
2022-10-28T04:12:29.014Z,5.13
2022-10-28T04:14:55.778Z,5.63
2022-10-28T04:17:22.529Z,5.72
2022-10-28T04:19:49.450Z,5.72
2022-10-28T04:22:16.311Z,5.63
2022-10-28T04:24:43.051Z,5.63
2022-10-28T04:27:09.808Z,5.70
2022-10-28T04:29:36.653Z,6.28
2022-10-28T04:32:03.952Z,6.10
2022-10-28T04:34:30.755Z,5.80
2022-10-28T04:36:57.504Z,5.57
2022-10-28T04:39:24.344Z,6.85
2022-10-28T04:41:51.156Z,6.25
2022-10-28T04:44:17.927Z,6.55
2022-10-28T04:46:44.718Z,6.30
2022-10-28T04:49:11.558Z,6.22
2022-10-28T04:51:38.430Z,6.60
2022-10-28T04:54:05.364Z,6.05
2022-10-28T04:56:33.329Z,6.22
2022-10-28T04:59:00.844Z,6.82
2022-10-28T05:01:27.731Z,6.82
2022-10-28T05:03:54.768Z,7.18
2022-10-28T05:06:21.554Z,6.45
2022-10-28T05:08:48.352Z,7.60
2022-10-28T05:11:15.228Z,7.28
2022-10-28T05:13:42.085Z,6.35
2022-10-28T05:16:09.046Z,7.05
2022-10-28T05:18:35.878Z,7.13
2022-10-28T05:21:02.762Z,7.15
2022-10-28T05:23:30.917Z,6.55
2022-10-28T05:25:58.318Z,5.78
2022-10-28T05:28:25.169Z,6.32
2022-10-28T05:30:52.070Z,5.97
2022-10-28T05:33:18.972Z,5.63
2022-10-28T05:35:45.825Z,6.85
2022-10-28T05:38:12.694Z,6.00
2022-10-28T05:40:39.681Z,6.13
2022-10-28T05:43:06.524Z,5.82
2022-10-28T05:45:33.372Z,6.90
2022-10-28T05:48:00.200Z,7.20
2022-10-28T05:50:27.041Z,5.93
2022-10-28T05:52:56.321Z,6.47
2022-10-28T05:55:25.313Z,6.60
2022-10-28T05:57:53.241Z,7.07
2022-10-28T06:00:22.807Z,6.60
2022-10-28T06:02:49.806Z,6.90
2022-10-28T06:05:16.992Z,6.20
2022-10-28T06:07:43.921Z,6.40
2022-10-28T06:10:11.591Z,7.28
2022-10-28T06:12:37.011Z,6.75
2022-10-28T06:15:04.179Z,6.95
2022-10-28T06:17:30.958Z,7.53
2022-10-28T06:19:57.729Z,6.93
2022-10-28T06:22:24.478Z,7.22
2022-10-28T06:24:51.253Z,6.28
2022-10-28T06:27:18.057Z,7.57
2022-10-28T06:29:44.811Z,6.35
2022-10-28T06:32:11.575Z,6.85
2022-10-28T06:34:38.437Z,11.43
2022-10-28T06:37:05.748Z,9.65
2022-10-28T06:39:32.970Z,7.28
2022-10-28T06:41:59.881Z,7.38
2022-10-28T06:44:26.761Z,7.65
2022-10-28T06:46:55.732Z,6.88
2022-10-28T06:49:22.601Z,7.13
2022-10-28T06:51:50.049Z,6.80
2022-10-28T06:54:17.683Z,7.38
2022-10-28T06:56:46.860Z,6.88
2022-10-28T06:59:13.615Z,6.55
2022-10-28T07:01:40.448Z,7.15
2022-10-28T07:04:10.907Z,6.63
2022-10-28T07:06:37.687Z,7.13
2022-10-28T07:09:04.636Z,6.93
2022-10-28T07:11:31.419Z,6.78
2022-10-28T07:13:58.186Z,7.32
2022-10-28T07:16:25.007Z,6.75
2022-10-28T07:18:51.801Z,6.70
2022-10-28T07:21:18.748Z,7.00
2022-10-28T07:23:47.290Z,7.40
2022-10-28T07:26:14.100Z,6.97
2022-10-28T07:28:42.920Z,6.70
2022-10-28T07:33:41.693Z,6.03
2022-10-28T07:36:08.938Z,5.80
2022-10-28T07:38:35.759Z,6.63
2022-10-28T07:41:08.869Z,6.20
2022-10-28T07:43:39.426Z,7.05
2022-10-28T07:46:07.434Z,6.70
2022-10-28T07:48:35.898Z,7.82
2022-10-28T07:51:04.498Z,6.38
2022-10-28T07:53:32.096Z,6.55
2022-10-28T07:56:01.544Z,6.45
2022-10-28T07:58:28.903Z,6.35
2022-10-28T08:00:55.983Z,5.85
2022-10-28T08:03:31.141Z,6.43
2022-10-28T08:06:11.097Z,7.03
2022-10-28T08:08:38.970Z,7.70
2022-10-28T08:11:24.165Z,6.90
2022-10-28T08:13:52.439Z,6.45
2022-10-28T08:16:19.894Z,7.25
2022-10-28T08:18:46.820Z,6.28
2022-10-28T08:21:14.800Z,5.38
2022-10-28T08:23:46.386Z,6.03
2022-10-28T08:26:15.227Z,6.15
2022-10-28T08:28:42.711Z,5.55
2022-10-28T08:31:10.239Z,5.78
2022-10-28T08:33:45.384Z,5.70
2022-10-28T08:36:15.161Z,6.13
2022-10-28T08:38:46.270Z,6.07
2022-10-28T08:41:30.267Z,5.88
2022-10-28T08:44:38.406Z,5.72
2022-10-28T08:47:10.766Z,5.53
2022-10-28T08:49:43.371Z,5.53
2022-10-28T08:52:12.546Z,6.00
2022-10-28T08:54:42.412Z,6.22
2022-10-28T08:57:20.296Z,5.28
2022-10-28T08:59:52.078Z,5.35
2022-10-28T09:02:25.219Z,6.07
2022-10-28T09:05:02.459Z,5.85
2022-10-28T09:07:31.119Z,5.45
2022-10-28T09:09:58.157Z,5.57
2022-10-28T09:12:24.895Z,4.60
2022-10-28T09:15:27.336Z,4.95
2022-10-28T09:18:01.805Z,4.93
2022-10-28T09:20:47.891Z,4.68
2022-10-28T09:23:37.437Z,5.22
2022-10-28T09:26:15.972Z,4.82
2022-10-28T09:29:19.747Z,5.10
2022-10-28T09:31:52.452Z,4.38
2022-10-28T09:34:27.287Z,4.75
2022-10-28T09:37:01.518Z,4.30
2022-10-28T09:39:39.359Z,4.57
2022-10-28T09:42:06.948Z,4.40
2022-10-28T09:44:41.223Z,4.40
2022-10-28T09:47:22.272Z,4.78
2022-10-28T09:49:51.639Z,4.47
2022-10-28T09:52:30.940Z,4.68
2022-10-28T09:55:04.872Z,4.75
2022-10-28T09:57:32.255Z,4.88
2022-10-28T09:59:59.914Z,5.60
2022-10-28T10:02:33.074Z,4.90
2022-10-28T10:05:01.983Z,5.35
2022-10-28T10:07:51.118Z,4.95
2022-10-28T10:11:03.703Z,4.90
2022-10-28T10:13:52.476Z,3.97
2022-10-28T10:16:34.802Z,5.13
2022-10-28T10:19:23.375Z,5.20
2022-10-28T10:21:57.288Z,5.00
2022-10-28T10:25:13.195Z,4.72
2022-10-28T10:27:46.982Z,3.80
2022-10-28T10:30:20.291Z,4.90
2022-10-28T10:32:48.672Z,4.88
2022-10-28T10:35:35.102Z,4.18
2022-10-28T10:38:05.325Z,4.68
2022-10-28T10:40:50.532Z,4.55
2022-10-28T10:43:34.640Z,4.82
2022-10-28T10:46:15.255Z,4.57
2022-10-28T10:48:42.492Z,4.15
2022-10-28T10:51:24.303Z,4.28
2022-10-28T10:53:55.743Z,4.18
2022-10-28T10:56:28.706Z,4.28
2022-10-28T10:59:01.960Z,5.38
2022-10-28T11:01:37.005Z,4.47
2022-10-28T11:04:15.400Z,4.07
2022-10-28T11:06:44.401Z,4.60
2022-10-28T11:09:23.387Z,3.63
2022-10-28T11:11:53.276Z,3.85
2022-10-28T11:14:24.726Z,4.30
2022-10-28T11:16:58.365Z,4.38
2022-10-28T11:19:34.312Z,4.35
2022-10-28T11:22:28.881Z,3.53
2022-10-28T11:25:10.859Z,5.40
2022-10-28T11:27:57.622Z,3.88
2022-10-28T11:30:43.964Z,4.13
2022-10-28T11:33:34.726Z,4.03
2022-10-28T11:36:15.298Z,5.03
2022-10-28T11:38:54.165Z,4.65
2022-10-28T11:41:43.871Z,4.43
2022-10-28T11:44:42.446Z,3.80
2022-10-28T11:47:23.191Z,4.00
2022-10-28T11:50:02.688Z,4.60
2022-10-28T11:52:42.743Z,3.90
2022-10-28T11:55:22.563Z,4.28
2022-10-28T11:58:02.246Z,3.67
2022-10-28T12:00:41.455Z,4.10
2022-10-28T12:03:37.311Z,3.97
2022-10-28T12:06:10.894Z,3.50
2022-10-28T12:08:56.206Z,4.28
2022-10-28T12:14:29.523Z,4.30
2022-10-28T12:17:04.472Z,3.92
2022-10-28T12:19:43.087Z,4.32
2022-10-28T12:22:14.753Z,3.88
2022-10-28T12:24:44.682Z,4.05
2022-10-28T12:27:31.775Z,4.28
2022-10-28T12:30:28.195Z,4.30
2022-10-28T12:33:20.985Z,4.30
2022-10-28T12:36:05.014Z,5.10
2022-10-28T12:38:55.986Z,3.97
2022-10-28T12:41:26.615Z,3.80
2022-10-28T12:44:04.574Z,4.22
2022-10-28T12:49:37.066Z,4.15
2022-10-28T12:52:17.709Z,3.83
2022-10-28T12:54:53.760Z,3.40
2022-10-28T12:57:22.919Z,3.85
2022-10-28T12:59:59.794Z,4.35
2022-10-28T13:02:35.410Z,4.38
2022-10-28T13:05:04.411Z,3.67
2022-10-28T13:08:10.435Z,4.10
2022-10-28T13:10:51.674Z,3.95
2022-10-28T13:13:41.232Z,3.90
2022-10-28T13:16:29.477Z,4.07
2022-10-28T13:19:05.447Z,3.50
2022-10-28T13:21:42.791Z,4.15
2022-10-28T13:24:26.304Z,5.53
2022-10-28T13:26:54.348Z,4.07
2022-10-28T13:29:22.562Z,4.30
2022-10-28T13:31:49.712Z,4.43
2022-10-28T13:34:19.094Z,4.22
2022-10-28T13:36:59.370Z,4.47
2022-10-28T13:39:28.917Z,4.47
2022-10-28T13:42:13.730Z,4.28
2022-10-28T13:44:58.856Z,3.92
2022-10-28T13:47:27.074Z,3.90
2022-10-28T13:50:06.342Z,4.20
2022-10-28T13:52:41.208Z,4.95
2022-10-28T13:55:25.828Z,3.75
2022-10-28T13:58:00.879Z,5.10
2022-10-28T14:03:07.088Z,4.10
2022-10-28T14:05:37.225Z,4.97
2022-10-28T14:08:29.014Z,4.07
2022-10-28T14:11:25.785Z,4.40
2022-10-28T14:13:57.055Z,4.38
2022-10-28T14:16:38.945Z,4.20
2022-10-28T14:19:20.102Z,4.30
2022-10-28T14:22:07.381Z,4.45
2022-10-28T14:24:42.242Z,4.95
2022-10-28T14:27:09.048Z,4.80
2022-10-28T14:29:55.857Z,4.30
2022-10-28T14:32:31.970Z,4.20
2022-10-28T14:35:12.869Z,4.68
2022-10-28T14:37:45.267Z,4.00
2022-10-28T14:40:25.483Z,4.30
2022-10-28T14:43:00.943Z,4.28
2022-10-28T14:45:39.811Z,3.90
2022-10-28T14:48:46.194Z,4.22
2022-10-28T14:51:16.704Z,4.50
2022-10-28T14:53:45.469Z,4.78
2022-10-28T14:56:28.288Z,4.40
2022-10-28T14:59:05.054Z,5.10
2022-10-28T15:01:51.205Z,4.25
2022-10-28T15:04:18.769Z,4.25
2022-10-28T15:06:48.049Z,4.40
2022-10-28T15:09:30.637Z,5.18
2022-10-28T15:11:59.144Z,4.78
2022-10-28T15:14:33.933Z,4.40
2022-10-28T15:17:12.251Z,3.90
2022-10-28T15:19:39.081Z,4.55
2022-10-28T15:22:13.701Z,4.60
2022-10-28T15:24:44.635Z,4.50
2022-10-28T15:27:14.865Z,4.65
2022-10-28T15:29:42.952Z,5.35
2022-10-28T15:32:12.281Z,4.90
2022-10-28T15:34:39.715Z,4.47
2022-10-28T15:37:06.937Z,4.43
2022-10-28T15:39:33.934Z,5.05
2022-10-28T15:42:02.521Z,5.68
2022-10-28T15:44:35.844Z,4.57
2022-10-28T15:47:16.803Z,4.90
2022-10-28T15:49:45.339Z,5.70
2022-10-28T15:52:17.932Z,5.18
2022-10-28T15:54:58.716Z,4.60
2022-10-28T15:57:29.026Z,5.20
2022-10-28T16:00:23.348Z,4.88
2022-10-28T16:02:56.197Z,5.07
2022-10-28T16:05:32.292Z,4.80
2022-10-28T16:08:31.921Z,5.57
2022-10-28T16:11:13.661Z,5.35
2022-10-28T16:13:47.191Z,5.03
2022-10-28T16:16:25.803Z,5.43
2022-10-28T16:19:06.184Z,4.95
2022-10-28T16:21:33.455Z,5.35
2022-10-28T16:24:00.231Z,6.07
2022-10-28T16:26:27.980Z,5.63
2022-10-28T16:28:54.895Z,5.57
2022-10-28T16:31:25.110Z,5.82
2022-10-28T16:33:51.936Z,5.82
2022-10-28T16:36:18.755Z,6.45
2022-10-28T16:38:45.580Z,5.72
2022-10-28T16:41:17.183Z,6.60
2022-10-28T16:43:44.352Z,6.45
2022-10-28T16:46:12.992Z,6.53
2022-10-28T16:48:39.795Z,5.57
2022-10-28T16:51:17.959Z,6.60
2022-10-28T16:53:47.402Z,5.50
2022-10-28T16:56:16.050Z,7.45
2022-10-28T16:58:43.731Z,6.97
2022-10-28T17:01:11.315Z,7.30
2022-10-28T17:03:38.143Z,11.52
2022-10-28T17:06:05.010Z,7.15
2022-10-28T17:09:00.679Z,7.18
2022-10-28T17:11:18.735Z,8.40
2022-10-28T17:13:45.670Z,6.90
2022-10-28T17:16:12.993Z,6.15
2022-10-28T17:18:40.225Z,6.65
2022-10-28T17:21:06.963Z,8.38
2022-10-28T17:23:33.731Z,7.22
2022-10-28T17:26:02.175Z,7.55
2022-10-28T17:28:29.272Z,7.43
2022-10-28T17:31:03.331Z,7.38
2022-10-28T17:33:30.197Z,7.90
2022-10-28T17:36:00.439Z,8.18
2022-10-28T17:38:27.304Z,7.72
2022-10-28T17:40:55.379Z,7.30
2022-10-28T17:43:22.780Z,7.55
2022-10-28T17:45:50.064Z,7.10
2022-10-28T17:48:17.245Z,27.25
2022-10-28T17:50:45.206Z,10.68
2022-10-28T17:53:11.992Z,8.52
2022-10-28T17:55:38.923Z,8.88
2022-10-28T17:58:05.756Z,8.20
2022-10-28T18:00:32.591Z,8.60
2022-10-28T18:02:59.407Z,8.48
2022-10-28T18:05:26.154Z,7.70
2022-10-28T18:07:56.455Z,8.50
2022-10-28T18:10:23.583Z,8.85
2022-10-28T18:12:51.791Z,8.40
2022-10-28T18:15:18.763Z,8.52
2022-10-28T18:17:49.855Z,8.05
2022-10-28T18:20:16.791Z,9.82
2022-10-28T18:22:43.618Z,9.15
2022-10-28T18:25:10.405Z,10.80
2022-10-28T18:27:38.357Z,9.30
2022-10-28T18:30:05.731Z,10.45
2022-10-28T18:32:32.924Z,9.30
2022-10-28T18:34:59.806Z,9.90
2022-10-28T18:37:28.445Z,9.75
2022-10-28T18:39:55.286Z,10.98
2022-10-28T18:42:22.257Z,10.27
2022-10-28T18:44:49.407Z,10.23
2022-10-28T18:47:16.204Z,10.20
2022-10-28T18:49:45.577Z,10.15
2022-10-28T18:52:12.539Z,11.55
2022-10-28T18:54:39.363Z,11.50
2022-10-28T18:57:06.133Z,11.38
2022-10-28T18:59:32.973Z,10.07
2022-10-28T19:01:59.851Z,9.90
2022-10-28T19:04:26.711Z,10.90
2022-10-28T19:06:53.574Z,10.25
2022-10-28T19:09:20.321Z,12.48
2022-10-28T19:11:47.104Z,12.27
2022-10-28T19:14:14.127Z,10.90
2022-10-28T19:16:40.975Z,11.27
2022-10-28T19:19:08.215Z,10.20
2022-10-28T19:21:35.063Z,11.23
2022-10-28T19:24:02.524Z,9.93
2022-10-28T19:26:31.915Z,10.43
2022-10-28T19:28:58.952Z,11.82
2022-10-28T19:31:27.132Z,10.93
2022-10-28T19:33:54.738Z,11.23
2022-10-28T19:36:24.205Z,10.82
2022-10-28T19:38:53.830Z,10.63
2022-10-28T19:41:29.432Z,10.70
2022-10-28T19:43:58.968Z,10.38
2022-10-28T19:46:27.972Z,11.70
2022-10-28T19:48:58.045Z,11.38
2022-10-28T19:51:30.366Z,10.95
2022-10-28T19:54:09.424Z,11.50
2022-10-28T19:56:37.764Z,10.00
2022-10-28T19:59:05.927Z,10.65
2022-10-28T20:01:35.831Z,11.35
2022-10-28T20:04:03.602Z,10.70
2022-10-28T20:06:32.718Z,10.40
2022-10-28T20:08:59.845Z,10.63
2022-10-28T20:11:29.323Z,10.90
2022-10-28T20:14:01.682Z,11.13
2022-10-28T20:16:28.932Z,9.63
2022-10-28T20:18:56.398Z,10.05
2022-10-28T20:21:24.968Z,10.88
2022-10-28T20:23:54.299Z,10.27
2022-10-28T20:26:28.541Z,11.68
2022-10-28T20:28:56.290Z,10.23
2022-10-28T20:31:26.036Z,10.57
2022-10-28T20:33:58.724Z,9.52
2022-10-28T20:36:40.042Z,10.00
2022-10-28T20:39:26.073Z,11.02
2022-10-28T20:41:52.887Z,9.52
2022-10-28T20:44:19.981Z,10.18
2022-10-28T20:46:48.111Z,10.05
2022-10-28T20:49:15.306Z,16.67
2022-10-28T20:51:42.315Z,10.90
2022-10-28T20:54:09.219Z,9.82
2022-10-28T20:56:38.097Z,10.38
2022-10-28T20:59:05.431Z,10.57
2022-10-28T21:01:35.463Z,10.10
2022-10-28T21:04:05.763Z,10.82
2022-10-28T21:06:33.317Z,9.52
2022-10-28T21:09:00.356Z,9.18
2022-10-28T21:11:28.350Z,9.68
2022-10-28T21:14:00.081Z,11.05
2022-10-28T21:16:28.491Z,10.07
2022-10-28T21:18:55.433Z,10.13
2022-10-28T21:21:24.149Z,14.32
2022-10-28T21:23:51.489Z,12.40
2022-10-28T21:26:18.498Z,9.13
2022-10-28T21:28:52.589Z,8.93
2022-10-28T21:31:20.641Z,10.35
2022-10-28T21:36:22.725Z,9.57
2022-10-28T21:38:53.108Z,9.75
2022-10-28T21:41:21.224Z,9.07
2022-10-28T21:43:49.751Z,9.43
2022-10-28T21:46:17.782Z,9.95
2022-10-28T21:48:45.037Z,9.35
2022-10-28T21:51:15.205Z,9.68
2022-10-28T21:53:44.031Z,9.25
2022-10-28T21:56:18.469Z,9.25
2022-10-28T21:58:48.104Z,8.52
2022-10-28T22:01:20.856Z,8.93
2022-10-28T22:03:48.213Z,8.73
2022-10-28T22:06:15.097Z,9.30
2022-10-28T22:08:41.949Z,8.90
2022-10-28T22:11:17.181Z,8.32
2022-10-28T22:13:44.647Z,8.30
2022-10-28T22:16:14.497Z,9.27
2022-10-28T22:18:41.514Z,8.88
2022-10-28T22:21:14.787Z,8.32
2022-10-28T22:23:41.843Z,8.85
2022-10-28T22:26:11.743Z,7.68
2022-10-28T22:28:38.922Z,9.50
2022-10-28T22:31:08.564Z,9.93
2022-10-28T22:33:35.920Z,8.50
2022-10-28T22:36:06.366Z,9.00
2022-10-28T22:38:33.136Z,10.48
2022-10-28T22:41:05.727Z,10.18
2022-10-28T22:43:32.999Z,10.90
2022-10-28T22:46:00.823Z,10.85
2022-10-28T22:48:28.241Z,12.13
2022-10-28T22:50:55.310Z,11.55
2022-10-28T22:53:22.154Z,10.85
2022-10-28T22:55:49.579Z,10.75
2022-10-28T22:58:16.900Z,11.20
2022-10-28T23:00:44.685Z,9.07
2022-10-28T23:03:12.368Z,11.80
2022-10-28T23:05:39.831Z,10.77
2022-10-28T23:08:07.007Z,10.38
2022-10-28T23:10:34.361Z,10.38
2022-10-28T23:13:02.447Z,9.98
2022-10-28T23:15:30.051Z,10.77
2022-10-28T23:17:57.561Z,10.05
2022-10-28T23:20:25.711Z,10.32
2022-10-28T23:22:56.466Z,9.82
2022-10-28T23:25:23.590Z,10.00
2022-10-28T23:27:50.355Z,10.35
2022-10-28T23:30:17.213Z,10.20
2022-10-28T23:32:43.944Z,10.07
2022-10-28T23:35:10.708Z,10.15
2022-10-28T23:37:37.595Z,10.48
2022-10-28T23:40:05.168Z,11.00
2022-10-28T23:42:32.108Z,11.02
2022-10-28T23:44:58.940Z,12.40
2022-10-28T23:47:25.666Z,10.75
2022-10-28T23:49:52.958Z,10.73
2022-10-28T23:52:19.756Z,10.65
2022-10-28T23:54:46.549Z,11.25
2022-10-28T23:57:13.371Z,10.43
2022-10-28T23:59:40.163Z,9.60
